Time;durP1;ratioP1;P1;durP2;ratioP2;P2;SDS_P1;SDS_P2;PMS_P1;PMS_P2;Temp;Humidity;BMP_temperature;BMP_pressure;BME280_temperature;BME280_humidity;BME280_pressure;Samples;Min_cycle;Max_cycle;Signal;HPM_P1;HPM_P2
2022/09/28 00:01:14;;;;;;;34.30;28.80;;;;;;;11.37;87.99;98257.93;106179;1271;138545;-84
2022/09/28 00:03:47;;;;;;;32.80;27.50;;;;;;;11.37;87.96;98256.86;106263;1271;96624;-85
2022/09/28 00:06:22;;;;;;;28.90;24.70;;;;;;;11.37;87.86;98255.64;106161;1271;138428;-85
2022/09/28 00:08:54;;;;;;;27.40;23.10;;;;;;;11.35;88.01;98257.14;106269;1271;110190;-87
2022/09/28 00:11:28;;;;;;;24.70;20.70;;;;;;;11.34;88.08;98259.53;106325;1271;109176;-83
2022/09/28 00:14:02;;;;;;;23.00;20.30;;;;;;;11.31;87.86;98256.25;106204;1271;138365;-80
2022/09/28 00:16:40;;;;;;;24.40;20.10;;;;;;;11.27;87.81;98260.62;106323;1271;96432;-82
2022/09/28 00:19:13;;;;;;;23.30;19.60;;;;;;;11.25;88.16;98261.97;106441;1270;138264;-81
2022/09/28 00:21:46;;;;;;;22.80;18.90;;;;;;;11.25;88.25;98259.27;106382;1271;111091;-82
2022/09/28 00:24:19;;;;;;;23.20;18.90;;;;;;;11.25;88.40;98254.21;106681;1270;138543;-81
2022/09/28 00:27:00;;;;;;;24.00;18.40;;;;;;;11.23;88.44;98253.81;106353;1271;107817;-81
2022/09/28 00:29:34;;;;;;;18.30;15.20;;;;;;;11.22;88.41;98254.61;106363;1270;96484;-82
2022/09/28 00:32:10;;;;;;;14.40;11.50;;;;;;;11.19;88.16;98260.85;106397;1271;96464;-80
2022/09/28 00:34:45;;;;;;;11.10;9.70;;;;;;;11.14;87.95;98259.26;106363;1271;110362;-79
2022/09/28 00:37:18;;;;;;;7.90;6.70;;;;;;;11.09;87.71;98254.88;106243;1271;140149;-77
2022/09/28 00:39:50;;;;;;;8.00;7.00;;;;;;;11.03;87.46;98261.04;107288;1270;107512;-78
2022/09/28 00:42:25;;;;;;;7.40;5.80;;;;;;;10.99;87.28;98263.60;106323;1271;138228;-80
2022/09/28 00:44:57;;;;;;;6.10;4.80;;;;;;;10.92;87.05;98263.83;106428;1270;97258;-80
2022/09/28 00:47:52;;;;;;;5.90;5.00;;;;;;;10.86;87.22;98267.35;106473;1270;111349;-79
2022/09/28 00:50:30;;;;;;;6.40;5.10;;;;;;;10.81;87.22;98269.97;106386;1271;107787;-79
2022/09/28 00:53:05;;;;;;;5.90;4.70;;;;;;;10.77;87.49;98269.84;106361;1271;107803;-79
2022/09/28 00:55:41;;;;;;;8.40;5.60;;;;;;;10.76;87.63;98273.39;106257;1271;137984;-79
2022/09/28 00:58:17;;;;;;;6.60;5.20;;;;;;;10.75;87.87;98270.67;106226;1272;96389;-79
2022/09/28 01:00:49;;;;;;;5.90;5.00;;;;;;;10.75;87.97;98275.04;106153;1271;137984;-79
2022/09/28 01:03:22;;;;;;;7.50;5.60;;;;;;;10.74;87.90;98275.42;106276;1271;107879;-80
2022/09/28 01:05:56;;;;;;;6.00;4.70;;;;;;;10.73;88.00;98275.49;106263;1271;138655;-80
2022/09/28 01:08:29;;;;;;;6.00;5.00;;;;;;;10.72;87.86;98271.20;106307;1271;96490;-82
2022/09/28 01:11:03;;;;;;;6.60;4.70;;;;;;;10.69;87.72;98270.20;106230;1271;96496;-81
2022/09/28 01:13:35;;;;;;;6.70;4.70;;;;;;;10.65;87.57;98270.13;106098;1271;138227;-80
2022/09/28 01:16:19;;;;;;;5.40;4.30;;;;;;;10.61;87.57;98266.55;106338;1270;108332;-81
2022/09/28 01:19:01;;;;;;;5.60;4.60;;;;;;;10.57;87.75;98265.89;106231;1271;139817;-82
2022/09/28 01:21:48;;;;;;;5.40;4.60;;;;;;;10.56;87.82;98261.13;106328;1271;96500;-81
2022/09/28 01:24:39;;;;;;;4.80;4.10;;;;;;;10.54;87.88;98258.30;106103;1274;138149;-80
2022/09/28 01:27:19;;;;;;;4.80;3.80;;;;;;;10.51;87.78;98255.20;106253;1271;111445;-81
2022/09/28 01:30:01;;;;;;;5.80;3.70;;;;;;;10.49;87.86;98253.60;106100;1273;138608;-81
2022/09/28 01:32:41;;;;;;;6.00;3.50;;;;;;;10.44;87.75;98249.92;106345;1270;108903;-81
2022/09/28 01:35:17;;;;;;;5.70;3.30;;;;;;;10.41;87.95;98244.89;106219;1270;96619;-80
2022/09/28 01:37:53;;;;;;;4.00;3.00;;;;;;;10.40;88.11;98244.27;106299;1271;137854;-80
2022/09/28 01:40:27;;;;;;;7.60;3.60;;;;;;;10.41;88.25;98244.91;106304;1271;110873;-79
2022/09/28 01:43:04;;;;;;;6.00;3.20;;;;;;;10.40;88.22;98246.02;106192;1271;138281;-79
2022/09/28 01:45:41;;;;;;;4.40;2.90;;;;;;;10.39;88.21;98240.64;106223;1271;108459;-82
2022/09/28 01:48:19;;;;;;;3.90;3.10;;;;;;;10.39;88.24;98237.52;106189;1271;138231;-79
2022/09/28 01:50:53;;;;;;;;;;;;;;;10.39;88.21;98236.48;106421;1270;96569;-79
2022/09/28 01:53:32;;;;;;;3.70;2.80;;;;;;;10.37;88.38;98230.55;106331;1271;111259;-79
2022/09/28 01:56:11;;;;;;;4.40;2.80;;;;;;;10.35;88.37;98231.87;106337;1271;106721;-80
2022/09/28 01:58:48;;;;;;;3.70;2.90;;;;;;;10.37;88.62;98235.59;106210;1271;109526;-80
2022/09/28 02:01:25;;;;;;;4.60;3.20;;;;;;;10.39;88.85;98234.77;106066;1271;138166;-80
2022/09/28 02:04:03;;;;;;;4.20;3.30;;;;;;;10.41;88.84;98238.80;106318;1270;96385;-80
2022/09/28 02:06:40;;;;;;;3.80;3.00;;;;;;;10.42;88.66;98239.11;106386;1271;139736;-80
2022/09/28 02:09:18;;;;;;;5.00;3.30;;;;;;;10.42;88.70;98243.95;106300;1271;108846;-80
2022/09/28 02:11:57;;;;;;;4.00;3.40;;;;;;;10.41;88.47;98245.39;106081;1271;138288;-80
2022/09/28 02:14:31;;;;;;;4.70;3.20;;;;;;;10.38;88.29;98246.61;106212;1271;97016;-80
2022/09/28 02:17:05;;;;;;;5.30;3.30;;;;;;;10.34;88.21;98249.52;106258;1271;96334;-80
2022/09/28 02:19:39;;;;;;;3.40;3.00;;;;;;;10.33;88.39;98250.95;106162;1271;137827;-80
2022/09/28 02:22:22;;;;;;;4.70;3.20;;;;;;;10.32;88.18;98250.33;106167;1271;109696;-81
2022/09/28 02:24:59;;;;;;;4.50;3.70;;;;;;;10.27;88.14;98251.84;106107;1271;139199;-81
2022/09/28 02:27:34;;;;;;;;;;;;;;;10.23;88.24;98243.23;106241;1268;96626;-80
2022/09/28 02:30:10;;;;;;;3.50;2.90;;;;;;;10.21;88.40;98246.96;106055;1271;124588;-80
2022/09/28 02:32:46;;;;;;;3.40;2.90;;;;;;;10.22;88.63;98243.98;106403;1270;110054;-79
2022/09/28 02:35:18;;;;;;;;;;;;;;;10.22;88.76;98243.43;106392;1268;107860;-81
2022/09/28 02:37:50;;;;;;;3.60;2.60;;;;;;;10.23;88.84;98247.06;106144;1271;126693;-80
2022/09/28 02:40:28;;;;;;;3.60;3.00;;;;;;;10.22;88.73;98245.17;106242;1271;97200;-80
2022/09/28 02:43:10;;;;;;;4.20;3.50;;;;;;;10.22;88.73;98246.95;106217;1271;139008;-80
2022/09/28 02:45:57;;;;;;;5.00;4.30;;;;;;;10.22;88.63;98241.38;106315;1270;111258;-80
2022/09/28 02:48:47;;;;;;;6.60;5.80;;;;;;;10.20;88.65;98238.54;106149;1271;138370;-80
2022/09/28 02:51:46;;;;;;;6.00;4.80;;;;;;;10.19;88.74;98238.02;106059;1271;107867;-79
2022/09/28 02:54:30;;;;;;;6.30;5.50;;;;;;;10.20;88.92;98241.48;106095;1271;138607;-80
2022/09/28 02:57:12;;;;;;;6.40;5.60;;;;;;;10.21;88.92;98239.36;106232;1271;96348;-80
2022/09/28 02:59:54;;;;;;;7.00;5.50;;;;;;;10.20;88.91;98241.31;106184;1271;138005;-80
2022/09/28 03:02:32;;;;;;;7.50;6.30;;;;;;;10.20;89.04;98238.85;106163;1271;109131;-80
2022/09/28 03:05:19;;;;;;;8.80;6.60;;;;;;;10.22;89.24;98242.09;106285;1271;109655;-80
2022/09/28 03:07:59;;;;;;;8.50;7.00;;;;;;;10.23;89.18;98242.52;106158;1271;138365;-80
2022/09/28 03:10:37;;;;;;;9.80;8.00;;;;;;;10.25;89.47;98239.96;106503;1271;96495;-80
2022/09/28 03:13:11;;;;;;;9.10;7.40;;;;;;;10.28;89.49;98241.00;106122;1271;138976;-80
2022/09/28 03:15:43;;;;;;;10.60;8.10;;;;;;;10.31;89.42;98240.70;106317;1271;109154;-80
2022/09/28 03:18:21;;;;;;;10.90;8.70;;;;;;;10.33;89.46;98239.89;106555;1270;139081;-81
2022/09/28 03:20:53;;;;;;;13.40;9.50;;;;;;;10.32;89.41;98241.80;106351;1270;97180;-81
2022/09/28 03:23:25;;;;;;;12.10;9.50;;;;;;;10.31;89.48;98240.66;106862;1270;96368;-81
2022/09/28 03:25:57;;;;;;;13.60;10.40;;;;;;;10.31;89.38;98240.51;106613;1270;138322;-81
2022/09/28 03:28:29;;;;;;;13.10;10.80;;;;;;;10.32;89.64;98239.72;106393;1271;106533;-81
2022/09/28 03:31:02;;;;;;;13.80;11.30;;;;;;;10.35;89.73;98241.45;106167;1271;138522;-81
2022/09/28 03:33:34;;;;;;;13.90;10.60;;;;;;;10.36;89.69;98242.10;106904;1270;96550;-81
2022/09/28 03:36:08;;;;;;;13.90;11.20;;;;;;;10.37;89.75;98241.17;106222;1270;138506;-81
2022/09/28 03:38:40;;;;;;;13.90;11.00;;;;;;;10.37;89.72;98243.40;106354;1271;111082;-80
2022/09/28 03:41:12;;;;;;;14.20;11.50;;;;;;;10.38;89.77;98244.73;106325;1271;108935;-81
2022/09/28 03:43:46;;;;;;;14.50;12.30;;;;;;;10.38;89.76;98241.96;106232;1271;138513;-81
2022/09/28 03:46:18;;;;;;;15.60;11.90;;;;;;;10.38;89.80;98239.84;106703;1271;96714;-81
2022/09/28 03:48:56;;;;;;;13.10;11.70;;;;;;;10.40;89.84;98237.85;106206;1271;139832;-80
2022/09/28 03:51:28;;;;;;;16.40;13.60;;;;;;;10.39;89.78;98236.13;106240;1271;110109;-79
2022/09/28 03:54:00;;;;;;;16.20;12.60;;;;;;;10.38;89.58;98239.36;106158;1270;138814;-80
2022/09/28 03:56:32;;;;;;;18.40;14.60;;;;;;;10.37;89.65;98239.92;106232;1271;109362;-78
2022/09/28 03:59:05;;;;;;;16.50;14.60;;;;;;;10.37;89.70;98240.11;106301;1270;97072;-79
2022/09/28 04:01:37;;;;;;;18.60;15.20;;;;;;;10.36;89.50;98244.31;106131;1269;138310;-79
2022/09/28 04:04:13;;;;;;;16.40;14.60;;;;;;;10.35;89.38;98244.08;106406;1269;111091;-79
2022/09/28 04:06:45;;;;;;;17.10;15.30;;;;;;;10.33;89.18;98248.73;106166;1271;139386;-79
2022/09/28 04:09:17;;;;;;;19.50;15.60;;;;;;;10.31;89.24;98248.66;106236;1271;107685;-80
2022/09/28 04:11:49;;;;;;;19.70;16.30;;;;;;;10.31;89.34;98247.80;106127;1271;138913;-80
2022/09/28 04:14:35;;;;;;;17.60;15.70;;;;;;;10.32;89.39;98246.72;106364;1270;96509;-80
2022/09/28 04:17:07;;;;;;;19.30;17.00;;;;;;;10.29;89.18;98250.66;106395;1270;110626;-80
2022/09/28 04:19:40;;;;;;;20.70;17.80;;;;;;;10.27;88.95;98252.00;106266;1271;138104;-80
2022/09/28 04:22:44;;;;;;;19.80;17.70;;;;;;;10.25;89.06;98252.50;106290;1271;108836;-81
2022/09/28 04:25:16;;;;;;;22.20;19.10;;;;;;;10.25;89.22;98259.79;106131;1271;137448;-80
2022/09/28 04:30:38;;;;;;;21.10;18.10;;;;;;;10.22;89.00;98253.70;106201;1271;139192;-80
2022/09/28 04:33:10;;;;;;;20.30;18.00;;;;;;;10.22;89.08;98250.40;106267;1271;108706;-80
2022/09/28 04:35:42;;;;;;;21.10;17.90;;;;;;;10.21;88.89;98251.30;106173;1271;138619;-79
2022/09/28 04:38:14;;;;;;;20.60;17.60;;;;;;;10.19;88.89;98250.04;106391;1271;96523;-80
2022/09/28 04:41:01;;;;;;;19.60;17.40;;;;;;;10.18;88.87;98247.48;106345;1271;96463;-80
2022/09/28 04:43:33;;;;;;;20.40;16.90;;;;;;;10.18;88.78;98244.23;106164;1271;138462;-80
2022/09/28 04:46:06;;;;;;;19.30;16.70;;;;;;;10.16;88.62;98250.22;106305;1271;108531;-80
2022/09/28 04:48:45;;;;;;;22.40;17.60;;;;;;;10.15;88.57;98249.29;106172;1271;138516;-80
2022/09/28 04:51:36;;;;;;;21.50;16.70;;;;;;;10.12;88.24;98252.93;106285;1271;96495;-78
2022/09/28 04:54:09;;;;;;;18.90;16.60;;;;;;;10.10;88.42;98253.03;106131;1271;138515;-79
2022/09/28 04:56:41;;;;;;;23.10;17.60;;;;;;;10.07;88.24;98259.16;106313;1271;111172;-78
2022/09/28 04:59:13;;;;;;;19.90;17.50;;;;;;;10.04;88.38;98260.50;106290;1271;107872;-79
2022/09/28 05:01:46;;;;;;;20.50;16.90;;;;;;;10.04;88.47;98251.14;106147;1271;138525;-79
2022/09/28 05:04:33;;;;;;;24.00;18.00;;;;;;;10.03;88.45;98257.30;106280;1270;96482;-79
2022/09/28 05:07:24;;;;;;;19.80;17.70;;;;;;;10.03;88.41;98259.03;106195;1270;139698;-78
2022/09/28 05:09:55;;;;;;;21.50;17.60;;;;;;;10.02;88.38;98260.86;106174;1272;111540;-78
2022/09/28 05:12:27;;;;;;;20.00;17.50;;;;;;;10.01;88.42;98260.90;106205;1270;138730;-78
2022/09/28 05:14:59;;;;;;;19.20;17.00;;;;;;;10.01;88.33;98261.91;106226;1270;108808;-79
2022/09/28 05:17:31;;;;;;;27.50;17.80;;;;;;;9.99;88.05;98262.08;106223;1271;96531;-78
2022/09/28 05:20:13;;;;;;;22.00;17.00;;;;;;;9.97;88.03;98258.38;106328;1271;96469;-78
2022/09/28 05:22:45;;;;;;;19.00;17.00;;;;;;;9.95;87.92;98265.08;106253;1271;110485;-78
2022/09/28 05:25:17;;;;;;;19.40;16.60;;;;;;;9.92;87.73;98268.37;106164;1271;138195;-78
2022/09/28 05:28:11;;;;;;;19.00;16.80;;;;;;;9.89;87.55;98264.79;106302;1271;108647;-78
2022/09/28 05:31:04;;;;;;;20.40;16.90;;;;;;;9.85;87.55;98267.23;106117;1271;138345;-77
2022/09/28 05:33:55;;;;;;;18.80;16.30;;;;;;;9.82;87.60;98276.27;106218;1271;96479;-77
2022/09/28 05:36:29;;;;;;;21.00;16.70;;;;;;;9.80;87.43;98278.19;106126;1271;138516;-78
2022/09/28 05:39:02;;;;;;;18.60;16.40;;;;;;;9.78;87.62;98271.02;106211;1268;108944;-77
2022/09/28 05:41:35;;;;;;;18.70;16.80;;;;;;;9.77;87.51;98269.71;106132;1271;107855;-77
2022/09/28 05:44:07;;;;;;;19.50;16.30;;;;;;;9.75;87.55;98267.55;106074;1270;96494;-77
2022/09/28 05:46:39;;;;;;;20.50;17.30;;;;;;;9.73;87.55;98273.06;106134;1271;97222;-77
2022/09/28 05:49:13;;;;;;;19.40;16.80;;;;;;;9.72;87.74;98272.60;106142;1271;138287;-77
2022/09/28 05:51:45;;;;;;;24.40;18.10;;;;;;;9.73;87.77;98272.52;106105;1271;108878;-78
2022/09/28 05:54:17;;;;;;;20.50;18.10;;;;;;;9.72;87.53;98279.17;105994;1271;138768;-78
2022/09/28 05:56:50;;;;;;;19.80;17.20;;;;;;;9.71;87.72;98283.05;106187;1270;96545;-78
2022/09/28 05:59:22;;;;;;;18.70;16.70;;;;;;;9.71;87.64;98286.19;106161;1270;96467;-77
2022/09/28 06:01:54;;;;;;;18.80;16.70;;;;;;;9.72;87.69;98291.14;106067;1270;138379;-78
2022/09/28 06:04:26;;;;;;;22.50;17.70;;;;;;;9.75;87.70;98290.46;106108;1271;107417;-77
2022/09/28 06:06:58;;;;;;;21.40;17.70;;;;;;;9.76;87.49;98291.95;106698;1271;138300;-77
2022/09/28 06:09:31;;;;;;;19.30;16.50;;;;;;;9.80;87.43;98293.28;106978;1271;96672;-78
2022/09/28 06:12:06;;;;;;;17.70;15.30;;;;;;;9.82;87.14;98294.86;106081;1271;138417;-76
2022/09/28 06:14:47;;;;;;;18.10;16.20;;;;;;;9.85;86.98;98299.05;106838;1270;109707;-77
2022/09/28 06:17:19;;;;;;;20.10;16.60;;;;;;;9.88;86.93;98299.23;106229;1270;107836;-77
2022/09/28 06:19:59;;;;;;;20.40;16.70;;;;;;;9.89;86.65;98297.73;106000;1271;138976;-78
2022/09/28 06:22:54;;;;;;;19.50;17.40;;;;;;;9.92;86.81;98294.98;106235;1270;96483;-76
2022/09/28 06:25:27;;;;;;;22.40;18.00;;;;;;;9.94;86.40;98295.71;106120;1271;138271;-76
2022/09/28 06:28:05;;;;;;;20.80;17.70;;;;;;;9.96;86.28;98296.95;106252;1271;109081;-77
2022/09/28 06:30:38;;;;;;;20.70;17.00;;;;;;;9.98;85.94;98303.30;107665;1270;138376;-77
2022/09/28 06:33:15;;;;;;;20.80;17.70;;;;;;;9.98;85.99;98301.72;106239;1271;109050;-79
2022/09/28 06:35:47;;;;;;;19.80;17.30;;;;;;;10.01;86.04;98304.81;105908;1272;138711;-79
2022/09/28 06:38:19;;;;;;;20.40;17.90;;;;;;;10.04;86.01;98304.30;106097;1271;96400;-80
2022/09/28 06:40:52;;;;;;;18.60;16.80;;;;;;;10.08;86.18;98300.05;106169;1271;111497;-80
2022/09/28 06:43:24;;;;;;;18.80;16.50;;;;;;;10.24;86.42;98298.41;105987;1271;138550;-80
2022/09/28 06:46:19;;;;;;;17.40;15.00;;;;;;;10.56;85.87;98295.21;106145;1270;108317;-77
2022/09/28 06:49:13;;;;;;;15.60;13.60;;;;;;;10.85;85.28;98299.24;106134;1270;138620;-79
2022/09/28 06:52:10;;;;;;;15.40;13.60;;;;;;;11.01;84.25;98298.94;106259;1270;96494;-79
2022/09/28 06:55:01;;;;;;;17.20;13.30;;;;;;;11.11;83.97;98297.16;106083;1270;139077;-80
2022/09/28 06:57:42;;;;;;;15.00;13.40;;;;;;;11.17;83.63;98297.50;106276;1268;108976;-79
2022/09/28 07:00:16;;;;;;;15.90;12.20;;;;;;;11.20;83.40;98298.70;106091;1268;139578;-80
2022/09/28 07:02:50;;;;;;;17.40;12.40;;;;;;;11.23;82.87;98301.64;106663;1271;96527;-79
2022/09/28 07:05:52;;;;;;;13.60;12.00;;;;;;;11.20;82.02;98307.90;106026;1270;140386;-78
2022/09/28 07:08:43;;;;;;;13.60;12.10;;;;;;;11.25;81.84;98312.30;106150;1271;111534;-79
2022/09/28 07:11:43;;;;;;;15.30;11.60;;;;;;;11.27;81.68;98316.17;105902;1271;138735;-76
2022/09/28 07:14:28;;;;;;;13.90;12.40;;;;;;;11.26;81.38;98316.23;106042;1271;108587;-78
2022/09/28 07:17:18;;;;;;;13.80;12.10;;;;;;;11.28;81.48;98318.91;105912;1271;96520;-78
2022/09/28 07:19:52;;;;;;;14.30;11.80;;;;;;;11.31;81.15;98323.57;106031;1271;138846;-77
2022/09/28 07:22:26;;;;;;;13.90;12.30;;;;;;;11.34;80.66;98323.16;106114;1270;113192;-79
2022/09/28 07:25:15;;;;;;;13.80;12.10;;;;;;;11.45;80.45;98323.48;106078;1270;138624;-79
2022/09/28 07:27:51;;;;;;;13.60;12.20;;;;;;;11.61;80.38;98326.06;106265;1271;107776;-79
2022/09/28 07:30:47;;;;;;;13.40;11.70;;;;;;;11.75;79.91;98321.14;105879;1271;138532;-78
2022/09/28 07:33:42;;;;;;;11.80;10.60;;;;;;;11.95;79.35;98319.47;106080;1270;97258;-77
2022/09/28 07:36:21;;;;;;;12.20;10.10;;;;;;;12.13;78.70;98318.06;106110;1269;138591;-77
2022/09/28 07:38:54;;;;;;;11.40;10.30;;;;;;;12.30;78.31;98322.79;106244;1268;109437;-78
2022/09/28 07:41:32;;;;;;;11.20;10.00;;;;;;;12.39;77.49;98327.05;106156;1270;108924;-77
2022/09/28 07:44:06;;;;;;;11.60;10.20;;;;;;;12.30;77.23;98326.27;106194;1271;96707;-78
2022/09/28 07:46:40;;;;;;;12.20;10.10;;;;;;;12.19;77.20;98327.19;106220;1270;96524;-77
2022/09/28 07:49:23;;;;;;;12.40;10.20;;;;;;;12.14;77.36;98327.92;106118;1268;138173;-77
2022/09/28 07:52:07;;;;;;;10.90;9.20;;;;;;;12.24;77.18;98334.14;106441;1268;109186;-77
2022/09/28 07:55:10;;;;;;;9.20;8.30;;;;;;;12.53;76.89;98335.07;105871;1271;139851;-77
2022/09/28 07:58:02;;;;;;;8.70;7.90;;;;;;;12.66;76.36;98339.36;106516;1268;96514;-77
2022/09/28 08:00:50;;;;;;;10.40;8.50;;;;;;;12.69;75.79;98342.35;106162;1270;138034;-76
2022/09/28 08:03:23;;;;;;;13.10;7.80;;;;;;;12.63;75.51;98345.02;106394;1263;110067;-76
2022/09/28 08:06:00;;;;;;;8.90;8.00;;;;;;;12.51;75.18;98346.72;106191;1269;140215;-75
2022/09/28 08:08:35;;;;;;;14.50;7.80;;;;;;;12.40;75.38;98347.49;106286;1271;107778;-76
2022/09/28 08:11:09;;;;;;;9.80;8.40;;;;;;;12.33;75.26;98349.77;106040;1272;96508;-76
2022/09/28 08:14:07;;;;;;;8.80;7.70;;;;;;;12.27;75.15;98352.41;106133;1271;96552;-77
2022/09/28 08:16:58;;;;;;;8.40;7.60;;;;;;;12.21;75.12;98355.66;106323;1268;110927;-77
2022/09/28 08:22:38;;;;;;;10.70;8.30;;;;;;;12.14;75.79;98356.15;106369;1268;108877;-77
2022/09/28 08:25:11;;;;;;;9.80;7.90;;;;;;;12.09;75.57;98363.39;106042;1269;138093;-78
2022/09/28 08:27:43;;;;;;;10.70;8.40;;;;;;;12.13;75.68;98362.32;106195;1270;96720;-78
2022/09/28 08:30:15;;;;;;;13.40;8.50;;;;;;;12.27;75.84;98363.09;106097;1268;138359;-78
2022/09/28 08:33:06;;;;;;;15.90;8.70;;;;;;;12.51;75.69;98359.11;106340;1268;108899;-77
2022/09/28 08:36:04;;;;;;;11.10;7.20;;;;;;;12.75;74.82;98361.98;106057;1271;139355;-78
2022/09/28 08:38:59;;;;;;;9.70;7.30;;;;;;;13.03;74.22;98356.48;105943;1271;96478;-77
2022/09/28 08:41:55;;;;;;;10.00;7.30;;;;;;;13.29;73.56;98352.83;106082;1270;138436;-77
2022/09/28 08:44:49;;;;;;;8.00;7.20;;;;;;;13.69;72.96;98354.04;106175;1271;110022;-77
2022/09/28 08:51:06;;;;;;;8.70;7.50;;;;;;;13.94;70.94;98357.91;106108;1271;108831;-77
2022/09/28 08:53:55;;;;;;;9.00;7.00;;;;;;;14.00;71.12;98359.91;106318;1272;138361;-77
2022/09/28 08:56:38;;;;;;;8.00;7.10;;;;;;;13.94;70.35;98360.70;106546;1271;96469;-77
2022/09/28 08:59:16;;;;;;;7.70;6.90;;;;;;;13.84;70.16;98361.85;106181;1272;111933;-77
2022/09/28 09:01:55;;;;;;;12.20;7.10;;;;;;;13.78;70.29;98360.57;106061;1271;137990;-77
2022/09/28 09:04:30;;;;;;;10.30;7.90;;;;;;;13.87;70.26;98359.72;106045;1272;108920;-78
2022/09/28 09:07:44;;;;;;;9.30;8.00;;;;;;;14.11;69.94;98353.67;105956;1270;138265;-76
2022/09/28 09:10:35;;;;;;;8.20;7.30;;;;;;;14.27;69.38;98356.45;106048;1272;96873;-80
2022/09/28 09:13:25;;;;;;;7.20;6.40;;;;;;;14.41;68.59;98355.72;105958;1270;138309;-79
2022/09/28 09:16:04;;;;;;;7.50;6.60;;;;;;;14.67;68.45;98357.73;106130;1270;108891;-77
2022/09/28 09:19:04;;;;;;;8.30;5.50;;;;;;;15.01;67.31;98346.44;105985;1270;138472;-76
2022/09/28 09:22:00;;;;;;;6.00;5.20;;;;;;;15.10;66.69;98350.25;106208;1270;96232;-76
2022/09/28 09:24:42;;;;;;;9.20;5.60;;;;;;;15.35;66.32;98351.02;107564;1268;138252;-78
2022/09/28 09:27:38;;;;;;;6.30;5.40;;;;;;;15.83;66.26;98345.96;106026;1270;109052;-78
2022/09/28 09:30:14;;;;;;;10.30;5.60;;;;;;;16.20;64.95;98348.48;106040;1270;139562;-76
2022/09/28 09:33:27;;;;;;;6.40;4.80;;;;;;;16.28;64.59;98348.78;107231;1270;109018;-78
2022/09/28 09:36:53;;;;;;;7.00;5.20;;;;;;;16.28;63.94;98351.09;106155;1270;137896;-77
2022/09/28 09:40:15;;;;;;;10.10;4.80;;;;;;;16.61;63.56;98350.89;105809;1272;96407;-77
2022/09/28 09:43:14;;;;;;;7.30;5.30;;;;;;;16.67;62.90;98352.63;106122;1270;137805;-79
2022/09/28 09:46:14;;;;;;;7.50;4.60;;;;;;;16.80;62.35;98348.33;106177;1271;108851;-77
2022/09/28 09:49:15;;;;;;;4.90;3.70;;;;;;;17.19;62.82;98349.67;105979;1272;137340;-80
2022/09/28 09:51:54;;;;;;;8.10;3.40;;;;;;;17.58;62.27;98351.42;106072;1272;96926;-79
2022/09/28 09:54:30;;;;;;;6.40;3.70;;;;;;;17.57;60.71;98353.91;106050;1270;137508;-79
2022/09/28 09:57:07;;;;;;;4.30;3.50;;;;;;;17.64;60.10;98355.44;106161;1272;110734;-77
2022/09/28 09:59:52;;;;;;;5.50;3.90;;;;;;;17.85;60.24;98361.02;106091;1271;137707;-78
2022/09/28 10:02:32;;;;;;;4.90;3.60;;;;;;;18.21;59.42;98360.89;106140;1270;109129;-77
2022/09/28 10:05:20;;;;;;;6.40;2.90;;;;;;;18.11;58.43;98359.52;106038;1272;96517;-78
2022/09/28 10:08:00;;;;;;;4.00;2.80;;;;;;;17.88;57.96;98368.85;106007;1272;137324;-78
2022/09/28 10:10:36;;;;;;;4.40;3.00;;;;;;;17.67;57.49;98364.11;106150;1271;111569;-78
2022/09/28 10:13:13;;;;;;;5.10;3.00;;;;;;;17.38;57.26;98370.27;106166;1270;137685;-78
2022/09/28 10:15:49;;;;;;;6.00;2.90;;;;;;;17.23;57.83;98369.71;106156;1271;107819;-77
2022/09/28 10:18:29;;;;;;;4.50;2.70;;;;;;;17.07;57.40;98370.37;106117;1270;139184;-78
2022/09/28 10:21:31;;;;;;;2.50;2.30;;;;;;;16.85;57.43;98378.64;105932;1273;96909;-77
2022/09/28 10:24:17;;;;;;;5.00;3.00;;;;;;;16.61;57.41;98380.33;106090;1271;137826;-78
2022/09/28 10:26:54;;;;;;;4.80;3.20;;;;;;;16.25;57.23;98378.33;106042;1272;107837;-77
2022/09/28 10:29:25;;;;;;;;;;;;;;;15.92;57.55;98375.69;106037;1271;107858;-78
2022/09/28 10:31:58;;;;;;;3.90;2.70;;;;;;;15.98;58.50;98375.57;105990;1272;125432;-80
2022/09/28 10:34:34;;;;;;;5.10;3.00;;;;;;;16.21;58.65;98377.10;106138;1271;96515;-80
2022/09/28 10:37:13;;;;;;;4.70;3.50;;;;;;;16.17;58.11;98378.89;106079;1271;138880;-79
2022/09/28 10:40:27;;;;;;;5.30;3.20;;;;;;;15.97;58.18;98377.55;106190;1271;110215;-78
2022/09/28 10:43:04;;;;;;;6.60;3.70;;;;;;;15.86;58.54;98373.33;107032;1271;138899;-79
2022/09/28 10:45:38;;;;;;;7.70;3.60;;;;;;;15.74;58.63;98376.00;107623;1271;96513;-78
2022/09/28 10:48:19;;;;;;;6.20;3.40;;;;;;;15.60;59.18;98375.58;106094;1271;137472;-78
2022/09/28 10:51:05;;;;;;;4.20;3.30;;;;;;;15.43;59.04;98383.41;106115;1272;109848;-78
2022/09/28 10:53:39;;;;;;;6.90;3.30;;;;;;;15.23;59.03;98380.89;106223;1272;108990;-78
2022/09/28 10:56:27;;;;;;;5.00;3.10;;;;;;;15.05;59.68;98384.43;106404;1270;107785;-78
2022/09/28 10:59:25;;;;;;;4.50;3.10;;;;;;;14.88;59.73;98385.97;106130;1271;96585;-78
2022/09/28 11:02:01;;;;;;;4.70;2.90;;;;;;;14.73;59.94;98386.27;106499;1271;137531;-79
2022/09/28 11:04:40;;;;;;;3.80;3.10;;;;;;;14.56;60.21;98384.80;106146;1271;111016;-78
2022/09/28 11:07:19;;;;;;;6.40;3.30;;;;;;;14.46;60.53;98386.31;106058;1271;138440;-79
2022/09/28 11:09:53;;;;;;;5.30;3.30;;;;;;;14.38;60.82;98377.62;106156;1270;107869;-79
2022/09/28 11:12:28;;;;;;;5.60;3.10;;;;;;;14.37;60.93;98373.69;106051;1271;137568;-82
2022/09/28 11:15:03;;;;;;;4.40;3.10;;;;;;;14.48;61.25;98367.79;105991;1271;96518;-79
2022/09/28 11:17:39;;;;;;;4.50;3.00;;;;;;;14.86;60.88;98369.15;106142;1271;109151;-79
2022/09/28 11:20:33;;;;;;;6.90;3.50;;;;;;;15.07;60.61;98364.98;106149;1270;108997;-80
2022/09/28 11:23:22;;;;;;;4.50;3.10;;;;;;;15.14;60.12;98371.63;106219;1270;107751;-77
2022/09/28 11:26:05;;;;;;;4.70;3.10;;;;;;;15.12;59.85;98370.94;106134;1270;138121;-79
2022/09/28 11:28:40;;;;;;;7.30;3.00;;;;;;;15.03;59.38;98368.44;106135;1271;96500;-79
2022/09/28 11:31:28;;;;;;;6.50;2.80;;;;;;;14.92;59.51;98368.52;105973;1272;137318;-79
2022/09/28 11:34:13;;;;;;;4.20;3.00;;;;;;;14.79;59.72;98373.73;106179;1271;109058;-79
2022/09/28 11:37:12;;;;;;;4.90;2.70;;;;;;;14.70;59.92;98373.02;105969;1272;139408;-79
2022/09/28 11:39:54;;;;;;;3.70;2.80;;;;;;;14.64;60.03;98375.09;106071;1271;96597;-79
2022/09/28 11:42:37;;;;;;;6.60;2.80;;;;;;;14.59;59.84;98371.88;106023;1272;137384;-78
2022/09/28 11:45:35;;;;;;;6.90;3.10;;;;;;;14.50;59.76;98370.03;106295;1272;110546;-78
2022/09/28 11:48:11;;;;;;;6.30;2.70;;;;;;;14.44;60.24;98372.79;106007;1272;139361;-78
2022/09/28 11:50:50;;;;;;;5.60;2.90;;;;;;;14.44;60.46;98377.20;106156;1272;109404;-78
2022/09/28 11:53:27;;;;;;;5.40;2.80;;;;;;;14.45;60.45;98377.41;107024;1271;96453;-79
2022/09/28 11:56:12;;;;;;;4.70;3.10;;;;;;;14.58;60.20;98379.77;106032;1272;137273;-79
2022/09/28 11:58:47;;;;;;;5.30;2.70;;;;;;;14.66;60.18;98383.89;106153;1272;111091;-79
2022/09/28 12:01:26;;;;;;;3.40;2.60;;;;;;;14.64;59.98;98384.59;106034;1272;137640;-79
2022/09/28 12:04:25;;;;;;;4.10;2.40;;;;;;;14.61;59.96;98387.23;106180;1271;109501;-79
2022/09/28 12:07:04;;;;;;;7.80;2.30;;;;;;;14.58;59.57;98389.03;106047;1272;137394;-77
2022/09/28 12:09:43;;;;;;;4.50;2.10;;;;;;;14.57;59.21;98393.38;106813;1272;96590;-78
2022/09/28 12:12:31;;;;;;;3.40;2.10;;;;;;;14.54;59.50;98393.92;106057;1272;137537;-78
2022/09/28 12:15:14;;;;;;;3.10;2.20;;;;;;;14.49;59.60;98390.92;106225;1272;107569;-78
2022/09/28 12:17:51;;;;;;;5.20;2.20;;;;;;;14.43;59.67;98391.96;106959;1272;139137;-82
2022/09/28 12:20:27;;;;;;;5.00;1.70;;;;;;;14.32;59.44;98395.73;106247;1271;96533;-76
2022/09/28 12:23:07;;;;;;;3.40;2.20;;;;;;;14.19;59.36;98397.07;106180;1272;96491;-77